sensor_id;sensor_type;location;lat;lon;timestamp;pressure;altitude;pressure_sealevel;temperature;humidity
11011;BME280;5558;42.702;23.178;2022-08-04T00:01:23;93857.72;;;18.10;99.59
11011;BME280;5558;42.702;23.178;2022-08-04T00:03:57;93866.13;;;17.95;100.00
11011;BME280;5558;42.702;23.178;2022-08-04T00:06:35;93862.38;;;17.74;100.00
11011;BME280;5558;42.702;23.178;2022-08-04T00:09:09;93857.84;;;17.83;100.00
11011;BME280;5558;42.702;23.178;2022-08-04T00:11:44;93855.41;;;17.73;100.00
11011;BME280;5558;42.702;23.178;2022-08-04T00:14:13;93859.84;;;17.55;100.00
11011;BME280;5558;42.702;23.178;2022-08-04T00:16:41;93850.16;;;17.46;100.00
11011;BME280;5558;42.702;23.178;2022-08-04T00:19:10;93861.25;;;17.39;100.00
11011;BME280;5558;42.702;23.178;2022-08-04T00:21:46;93856.00;;;17.48;100.00
11011;BME280;5558;42.702;23.178;2022-08-04T00:24:14;93852.59;;;17.56;100.00
11011;BME280;5558;42.702;23.178;2022-08-04T00:26:43;93853.97;;;17.67;100.00
11011;BME280;5558;42.702;23.178;2022-08-04T00:29:10;93845.19;;;17.75;100.00
11011;BME280;5558;42.702;23.178;2022-08-04T00:31:37;93861.94;;;17.80;100.00
11011;BME280;5558;42.702;23.178;2022-08-04T00:34:09;93849.63;;;17.79;100.00
11011;BME280;5558;42.702;23.178;2022-08-04T00:36:37;93855.78;;;17.80;100.00
11011;BME280;5558;42.702;23.178;2022-08-04T00:39:05;93865.50;;;17.76;100.00
11011;BME280;5558;42.702;23.178;2022-08-04T00:41:40;93864.75;;;17.75;100.00
11011;BME280;5558;42.702;23.178;2022-08-04T00:44:25;93863.50;;;17.81;100.00
11011;BME280;5558;42.702;23.178;2022-08-04T00:47:18;93864.81;;;17.84;100.00
11011;BME280;5558;42.702;23.178;2022-08-04T00:50:07;93862.91;;;17.84;100.00
11011;BME280;5558;42.702;23.178;2022-08-04T00:52:57;93864.50;;;17.85;100.00
11011;BME280;5558;42.702;23.178;2022-08-04T00:55:44;93855.19;;;17.83;100.00
11011;BME280;5558;42.702;23.178;2022-08-04T00:58:25;93863.09;;;17.88;100.00
11011;BME280;5558;42.702;23.178;2022-08-04T01:01:00;93871.75;;;17.85;100.00
11011;BME280;5558;42.702;23.178;2022-08-04T01:03:41;93871.94;;;17.88;100.00
11011;BME280;5558;42.702;23.178;2022-08-04T01:06:21;93872.53;;;17.85;100.00
11011;BME280;5558;42.702;23.178;2022-08-04T01:09:00;93870.16;;;17.84;100.00
11011;BME280;5558;42.702;23.178;2022-08-04T01:11:42;93876.59;;;17.83;100.00
11011;BME280;5558;42.702;23.178;2022-08-04T01:14:28;93876.09;;;17.59;100.00
11011;BME280;5558;42.702;23.178;2022-08-04T01:17:06;93878.94;;;17.62;100.00
11011;BME280;5558;42.702;23.178;2022-08-04T01:19:52;93878.59;;;17.42;100.00
11011;BME280;5558;42.702;23.178;2022-08-04T01:22:49;93869.56;;;17.38;100.00
11011;BME280;5558;42.702;23.178;2022-08-04T01:28:34;93871.25;;;17.34;100.00
11011;BME280;5558;42.702;23.178;2022-08-04T01:31:10;93873.47;;;17.18;100.00
11011;BME280;5558;42.702;23.178;2022-08-04T01:33:43;93875.66;;;17.16;100.00
11011;BME280;5558;42.702;23.178;2022-08-04T01:36:13;93864.88;;;17.08;100.00
11011;BME280;5558;42.702;23.178;2022-08-04T01:38:40;93881.13;;;17.11;100.00
11011;BME280;5558;42.702;23.178;2022-08-04T01:41:09;93875.97;;;17.15;100.00
11011;BME280;5558;42.702;23.178;2022-08-04T01:43:41;93878.03;;;17.18;100.00
11011;BME280;5558;42.702;23.178;2022-08-04T01:46:11;93870.69;;;17.23;100.00
11011;BME280;5558;42.702;23.178;2022-08-04T01:48:40;93882.44;;;17.36;100.00
11011;BME280;5558;42.702;23.178;2022-08-04T01:51:08;93874.63;;;17.39;100.00
11011;BME280;5558;42.702;23.178;2022-08-04T01:53:36;93880.16;;;17.43;100.00
11011;BME280;5558;42.702;23.178;2022-08-04T01:56:05;93872.63;;;17.45;100.00
11011;BME280;5558;42.702;23.178;2022-08-04T01:58:34;93867.81;;;17.47;100.00
11011;BME280;5558;42.702;23.178;2022-08-04T02:01:03;93877.19;;;17.44;100.00
11011;BME280;5558;42.702;23.178;2022-08-04T02:03:33;93865.69;;;17.44;100.00
11011;BME280;5558;42.702;23.178;2022-08-04T02:06:09;93860.28;;;17.35;100.00
11011;BME280;5558;42.702;23.178;2022-08-04T02:08:46;93856.53;;;17.23;100.00
11011;BME280;5558;42.702;23.178;2022-08-04T02:11:17;93850.59;;;16.98;100.00
11011;BME280;5558;42.702;23.178;2022-08-04T02:13:53;93850.31;;;17.00;100.00
11011;BME280;5558;42.702;23.178;2022-08-04T02:16:28;93850.41;;;16.95;100.00
11011;BME280;5558;42.702;23.178;2022-08-04T02:19:03;93853.47;;;16.48;100.00
11011;BME280;5558;42.702;23.178;2022-08-04T02:21:31;93852.53;;;16.25;100.00
11011;BME280;5558;42.702;23.178;2022-08-04T02:24:02;93857.84;;;16.57;100.00
11011;BME280;5558;42.702;23.178;2022-08-04T02:26:33;93856.97;;;16.62;100.00
11011;BME280;5558;42.702;23.178;2022-08-04T02:29:08;93860.53;;;16.57;100.00
11011;BME280;5558;42.702;23.178;2022-08-04T02:31:44;93869.91;;;16.55;100.00
11011;BME280;5558;42.702;23.178;2022-08-04T02:34:18;93865.47;;;16.64;100.00
11011;BME280;5558;42.702;23.178;2022-08-04T02:36:49;93867.84;;;16.65;100.00
11011;BME280;5558;42.702;23.178;2022-08-04T02:39:19;93868.25;;;16.72;100.00
11011;BME280;5558;42.702;23.178;2022-08-04T02:41:47;93857.56;;;16.72;100.00
11011;BME280;5558;42.702;23.178;2022-08-04T02:44:19;93864.19;;;16.75;100.00
11011;BME280;5558;42.702;23.178;2022-08-04T02:46:47;93874.56;;;16.76;100.00
11011;BME280;5558;42.702;23.178;2022-08-04T02:49:18;93865.06;;;16.70;100.00
11011;BME280;5558;42.702;23.178;2022-08-04T02:51:47;93875.66;;;16.62;100.00
11011;BME280;5558;42.702;23.178;2022-08-04T02:54:18;93874.66;;;16.71;100.00
11011;BME280;5558;42.702;23.178;2022-08-04T02:56:45;93882.09;;;16.74;100.00
11011;BME280;5558;42.702;23.178;2022-08-04T02:59:12;93881.81;;;16.76;100.00
11011;BME280;5558;42.702;23.178;2022-08-04T03:01:40;93880.91;;;16.80;100.00
11011;BME280;5558;42.702;23.178;2022-08-04T03:04:23;93876.53;;;16.84;100.00
11011;BME280;5558;42.702;23.178;2022-08-04T03:07:19;93883.50;;;16.85;100.00
11011;BME280;5558;42.702;23.178;2022-08-04T03:10:17;93881.91;;;16.84;100.00
11011;BME280;5558;42.702;23.178;2022-08-04T03:13:04;93882.00;;;16.79;100.00
11011;BME280;5558;42.702;23.178;2022-08-04T03:15:53;93884.66;;;16.79;100.00
11011;BME280;5558;42.702;23.178;2022-08-04T03:18:45;93878.75;;;16.82;100.00
11011;BME280;5558;42.702;23.178;2022-08-04T03:21:49;93881.72;;;16.81;100.00
11011;BME280;5558;42.702;23.178;2022-08-04T03:24:41;93876.38;;;16.81;100.00
11011;BME280;5558;42.702;23.178;2022-08-04T03:27:45;93876.16;;;16.77;100.00
11011;BME280;5558;42.702;23.178;2022-08-04T03:30:28;93866.16;;;16.69;100.00
11011;BME280;5558;42.702;23.178;2022-08-04T03:36:23;93869.00;;;16.59;100.00
11011;BME280;5558;42.702;23.178;2022-08-04T03:39:27;93873.28;;;16.60;100.00
11011;BME280;5558;42.702;23.178;2022-08-04T03:42:13;93830.28;;;16.43;100.00
11011;BME280;5558;42.702;23.178;2022-08-04T03:45:04;93871.41;;;16.74;100.00
11011;BME280;5558;42.702;23.178;2022-08-04T03:54:04;93869.63;;;16.97;100.00
11011;BME280;5558;42.702;23.178;2022-08-04T03:57:03;93861.47;;;17.16;100.00
11011;BME280;5558;42.702;23.178;2022-08-04T03:59:56;93871.06;;;17.30;100.00
11011;BME280;5558;42.702;23.178;2022-08-04T04:02:52;93875.31;;;17.45;100.00
11011;BME280;5558;42.702;23.178;2022-08-04T04:05:56;93870.56;;;17.42;100.00
11011;BME280;5558;42.702;23.178;2022-08-04T04:11:43;93877.41;;;17.48;100.00
11011;BME280;5558;42.702;23.178;2022-08-04T04:14:25;93884.31;;;17.84;100.00
11011;BME280;5558;42.702;23.178;2022-08-04T04:17:08;93897.91;;;17.88;100.00
11011;BME280;5558;42.702;23.178;2022-08-04T04:20:09;93887.50;;;18.08;100.00
11011;BME280;5558;42.702;23.178;2022-08-04T04:22:56;93884.28;;;18.20;100.00
11011;BME280;5558;42.702;23.178;2022-08-04T04:25:34;93884.06;;;18.61;100.00
11011;BME280;5558;42.702;23.178;2022-08-04T04:28:28;93888.81;;;19.42;100.00
11011;BME280;5558;42.702;23.178;2022-08-04T04:31:06;93886.81;;;20.07;95.79
11011;BME280;5558;42.702;23.178;2022-08-04T04:33:50;93891.06;;;20.51;90.04
11011;BME280;5558;42.702;23.178;2022-08-04T04:36:29;93883.41;;;21.16;84.27
11011;BME280;5558;42.702;23.178;2022-08-04T04:39:02;93886.63;;;21.68;79.76
11011;BME280;5558;42.702;23.178;2022-08-04T04:47:39;93887.41;;;23.92;64.45
11011;BME280;5558;42.702;23.178;2022-08-04T04:50:12;93891.94;;;24.28;61.75
11011;BME280;5558;42.702;23.178;2022-08-04T04:52:46;93893.81;;;24.67;60.56
11011;BME280;5558;42.702;23.178;2022-08-04T04:55:20;93900.63;;;24.88;59.19
11011;BME280;5558;42.702;23.178;2022-08-04T04:57:50;93892.44;;;24.73;58.77
11011;BME280;5558;42.702;23.178;2022-08-04T05:00:17;93899.25;;;24.67;58.76
11011;BME280;5558;42.702;23.178;2022-08-04T05:03:07;93897.72;;;24.54;59.18
11011;BME280;5558;42.702;23.178;2022-08-04T05:05:57;93897.53;;;24.47;59.98
11011;BME280;5558;42.702;23.178;2022-08-04T05:14:24;93890.50;;;25.63;55.73
11011;BME280;5558;42.702;23.178;2022-08-04T05:16:58;93894.22;;;25.55;55.93
11011;BME280;5558;42.702;23.178;2022-08-04T05:19:35;93901.94;;;25.10;56.75
11011;BME280;5558;42.702;23.178;2022-08-04T05:22:07;93902.63;;;24.64;58.07
11011;BME280;5558;42.702;23.178;2022-08-04T05:24:38;93891.88;;;24.52;59.07
11011;BME280;5558;42.702;23.178;2022-08-04T05:27:11;93906.53;;;25.21;57.96
11011;BME280;5558;42.702;23.178;2022-08-04T05:29:45;93903.97;;;25.13;56.84
11011;BME280;5558;42.702;23.178;2022-08-04T05:32:14;93902.16;;;24.74;58.96
11011;BME280;5558;42.702;23.178;2022-08-04T05:34:46;93895.19;;;24.88;57.57
11011;BME280;5558;42.702;23.178;2022-08-04T05:37:16;93900.03;;;25.73;55.89
11011;BME280;5558;42.702;23.178;2022-08-04T05:39:47;93902.69;;;26.77;52.79
11011;BME280;5558;42.702;23.178;2022-08-04T05:42:15;93903.34;;;27.12;50.29
11011;BME280;5558;42.702;23.178;2022-08-04T05:44:42;93900.00;;;27.64;48.95
11011;BME280;5558;42.702;23.178;2022-08-04T05:47:10;93905.63;;;27.51;48.86
11011;BME280;5558;42.702;23.178;2022-08-04T05:49:38;93905.34;;;26.73;51.33
11011;BME280;5558;42.702;23.178;2022-08-04T05:52:09;93913.56;;;25.10;56.63
11011;BME280;5558;42.702;23.178;2022-08-04T05:54:36;93911.84;;;24.07;62.08
11011;BME280;5558;42.702;23.178;2022-08-04T05:57:05;93908.47;;;23.26;66.65
11011;BME280;5558;42.702;23.178;2022-08-04T05:59:37;93906.69;;;24.02;63.36
11011;BME280;5558;42.702;23.178;2022-08-04T06:02:06;93920.28;;;24.85;60.86
11011;BME280;5558;42.702;23.178;2022-08-04T06:04:37;93912.72;;;25.69;57.31
11011;BME280;5558;42.702;23.178;2022-08-04T06:07:05;93915.28;;;25.62;57.95
11011;BME280;5558;42.702;23.178;2022-08-04T06:09:34;93920.34;;;25.63;58.39
11011;BME280;5558;42.702;23.178;2022-08-04T06:12:03;93911.94;;;24.51;63.74
11011;BME280;5558;42.702;23.178;2022-08-04T06:14:38;93923.16;;;24.65;62.70
11011;BME280;5558;42.702;23.178;2022-08-04T06:17:07;93928.31;;;23.66;68.23
11011;BME280;5558;42.702;23.178;2022-08-04T06:19:36;93924.00;;;24.13;67.43
11011;BME280;5558;42.702;23.178;2022-08-04T06:22:05;93925.38;;;23.83;68.49
11011;BME280;5558;42.702;23.178;2022-08-04T06:24:38;93927.72;;;23.13;73.39
11011;BME280;5558;42.702;23.178;2022-08-04T06:27:06;93930.66;;;22.75;76.77
11011;BME280;5558;42.702;23.178;2022-08-04T06:29:35;93931.47;;;22.87;76.57
11011;BME280;5558;42.702;23.178;2022-08-04T06:32:05;93927.00;;;22.59;78.67
11011;BME280;5558;42.702;23.178;2022-08-04T06:34:50;93935.75;;;22.88;77.34
11011;BME280;5558;42.702;23.178;2022-08-04T06:37:18;93932.09;;;23.05;77.21
11011;BME280;5558;42.702;23.178;2022-08-04T06:39:48;93932.03;;;23.38;74.57
11011;BME280;5558;42.702;23.178;2022-08-04T06:42:17;93928.34;;;23.42;73.57
11011;BME280;5558;42.702;23.178;2022-08-04T06:44:45;93928.88;;;23.84;71.40
11011;BME280;5558;42.702;23.178;2022-08-04T06:47:14;93931.16;;;25.32;63.86
11011;BME280;5558;42.702;23.178;2022-08-04T06:49:44;93927.19;;;26.99;57.21
11011;BME280;5558;42.702;23.178;2022-08-04T06:52:12;93931.94;;;27.93;53.27
11011;BME280;5558;42.702;23.178;2022-08-04T06:54:42;93929.28;;;28.22;50.49
11011;BME280;5558;42.702;23.178;2022-08-04T06:57:12;93932.50;;;28.31;49.76
11011;BME280;5558;42.702;23.178;2022-08-04T06:59:40;93924.34;;;28.61;49.28
11011;BME280;5558;42.702;23.178;2022-08-04T07:02:13;93929.91;;;28.68;48.76
11011;BME280;5558;42.702;23.178;2022-08-04T07:04:41;93926.66;;;28.59;48.45
11011;BME280;5558;42.702;23.178;2022-08-04T07:07:09;93926.34;;;28.97;48.07
11011;BME280;5558;42.702;23.178;2022-08-04T07:09:36;93929.25;;;29.92;46.13
11011;BME280;5558;42.702;23.178;2022-08-04T07:12:04;93933.31;;;30.83;43.50
11011;BME280;5558;42.702;23.178;2022-08-04T07:14:33;93927.84;;;30.80;43.14
11011;BME280;5558;42.702;23.178;2022-08-04T07:17:02;93925.91;;;29.68;45.35
11011;BME280;5558;42.702;23.178;2022-08-04T07:19:29;93923.41;;;27.94;48.75
11011;BME280;5558;42.702;23.178;2022-08-04T07:21:57;93929.31;;;27.77;50.18
11011;BME280;5558;42.702;23.178;2022-08-04T07:24:28;93920.88;;;27.82;49.38
11011;BME280;5558;42.702;23.178;2022-08-04T07:26:55;93926.81;;;27.65;50.56
11011;BME280;5558;42.702;23.178;2022-08-04T07:29:22;93922.25;;;27.46;51.37
11011;BME280;5558;42.702;23.178;2022-08-04T07:31:51;93915.88;;;27.62;51.09
11011;BME280;5558;42.702;23.178;2022-08-04T07:34:19;93921.19;;;28.29;49.78
11011;BME280;5558;42.702;23.178;2022-08-04T07:36:48;93918.50;;;28.59;48.31
11011;BME280;5558;42.702;23.178;2022-08-04T07:39:15;93915.66;;;29.15;46.80
11011;BME280;5558;42.702;23.178;2022-08-04T07:41:42;93920.84;;;29.27;46.63
11011;BME280;5558;42.702;23.178;2022-08-04T07:44:09;93914.44;;;29.49;46.83
11011;BME280;5558;42.702;23.178;2022-08-04T07:46:39;93919.00;;;30.32;44.23
11011;BME280;5558;42.702;23.178;2022-08-04T07:49:08;93916.03;;;30.01;45.22
11011;BME280;5558;42.702;23.178;2022-08-04T07:51:36;93922.34;;;30.08;44.46
11011;BME280;5558;42.702;23.178;2022-08-04T07:54:05;93921.41;;;29.86;43.91
11011;BME280;5558;42.702;23.178;2022-08-04T07:56:35;93917.91;;;29.89;45.21
11011;BME280;5558;42.702;23.178;2022-08-04T07:59:03;93915.25;;;29.53;45.34
11011;BME280;5558;42.702;23.178;2022-08-04T08:01:32;93913.91;;;29.36;45.56
11011;BME280;5558;42.702;23.178;2022-08-04T08:04:00;93915.50;;;29.04;45.67
11011;BME280;5558;42.702;23.178;2022-08-04T08:06:30;93923.25;;;28.99;44.97
11011;BME280;5558;42.702;23.178;2022-08-04T08:08:59;93922.41;;;28.95;46.79
11011;BME280;5558;42.702;23.178;2022-08-04T08:11:27;93925.22;;;28.68;49.32
11011;BME280;5558;42.702;23.178;2022-08-04T08:13:54;93912.94;;;28.82;48.30
11011;BME280;5558;42.702;23.178;2022-08-04T08:16:22;93923.09;;;28.51;49.08
11011;BME280;5558;42.702;23.178;2022-08-04T08:18:49;93916.91;;;28.28;49.02
11011;BME280;5558;42.702;23.178;2022-08-04T08:21:18;93913.72;;;27.97;49.34
11011;BME280;5558;42.702;23.178;2022-08-04T08:23:47;93916.00;;;27.69;50.37
11011;BME280;5558;42.702;23.178;2022-08-04T08:26:15;93925.84;;;27.77;51.30
11011;BME280;5558;42.702;23.178;2022-08-04T08:28:42;93932.78;;;27.74;50.73
11011;BME280;5558;42.702;23.178;2022-08-04T08:31:08;93927.41;;;27.78;49.71
11011;BME280;5558;42.702;23.178;2022-08-04T08:33:35;93922.56;;;27.68;49.62
11011;BME280;5558;42.702;23.178;2022-08-04T08:36:06;93936.00;;;27.57;49.29
11011;BME280;5558;42.702;23.178;2022-08-04T08:38:43;93925.47;;;28.01;48.05
11011;BME280;5558;42.702;23.178;2022-08-04T08:41:40;93930.94;;;28.04;47.34
11011;BME280;5558;42.702;23.178;2022-08-04T08:44:36;93924.75;;;28.33;47.58
11011;BME280;5558;42.702;23.178;2022-08-04T08:47:17;93920.69;;;28.50;48.11
11011;BME280;5558;42.702;23.178;2022-08-04T08:50:09;93904.53;;;28.34;47.89
11011;BME280;5558;42.702;23.178;2022-08-04T08:53:01;93921.25;;;28.33;47.55
11011;BME280;5558;42.702;23.178;2022-08-04T08:55:44;93917.91;;;28.17;48.25
11011;BME280;5558;42.702;23.178;2022-08-04T08:58:27;93924.09;;;28.14;48.99
11011;BME280;5558;42.702;23.178;2022-08-04T09:01:09;93924.19;;;28.21;49.29
11011;BME280;5558;42.702;23.178;2022-08-04T09:03:55;93929.81;;;28.05;46.04
11011;BME280;5558;42.702;23.178;2022-08-04T09:06:51;93924.47;;;27.90;45.56
11011;BME280;5558;42.702;23.178;2022-08-04T09:09:40;93917.31;;;28.30;45.09
11011;BME280;5558;42.702;23.178;2022-08-04T09:12:13;93902.50;;;28.28;43.45
11011;BME280;5558;42.702;23.178;2022-08-04T09:14:49;93915.94;;;28.73;41.39
11011;BME280;5558;42.702;23.178;2022-08-04T09:17:25;93917.69;;;28.58;41.31
11011;BME280;5558;42.702;23.178;2022-08-04T09:19:58;93921.16;;;28.85;39.56
11011;BME280;5558;42.702;23.178;2022-08-04T09:22:35;93922.22;;;29.10;39.01
11011;BME280;5558;42.702;23.178;2022-08-04T09:25:09;93914.16;;;29.21;40.95
11011;BME280;5558;42.702;23.178;2022-08-04T09:27:45;93909.97;;;29.30;39.21
11011;BME280;5558;42.702;23.178;2022-08-04T09:30:17;93911.53;;;29.31;39.65
11011;BME280;5558;42.702;23.178;2022-08-04T09:32:54;93909.69;;;29.42;40.01
11011;BME280;5558;42.702;23.178;2022-08-04T09:35:32;93907.00;;;29.46;39.93
11011;BME280;5558;42.702;23.178;2022-08-04T09:38:08;93908.56;;;29.47;41.80
11011;BME280;5558;42.702;23.178;2022-08-04T09:40:42;93918.44;;;29.62;40.48
11011;BME280;5558;42.702;23.178;2022-08-04T09:43:26;93907.25;;;29.30;41.01
11011;BME280;5558;42.702;23.178;2022-08-04T09:46:01;93907.03;;;29.49;42.70
11011;BME280;5558;42.702;23.178;2022-08-04T09:48:42;93904.75;;;29.58;41.79
11011;BME280;5558;42.702;23.178;2022-08-04T09:51:18;93909.44;;;29.18;40.63
11011;BME280;5558;42.702;23.178;2022-08-04T09:53:54;93899.25;;;29.11;41.13
11011;BME280;5558;42.702;23.178;2022-08-04T09:56:29;93904.97;;;29.03;40.57
11011;BME280;5558;42.702;23.178;2022-08-04T09:59:05;93894.97;;;28.47;42.62
11011;BME280;5558;42.702;23.178;2022-08-04T10:01:37;93895.19;;;28.61;41.10
11011;BME280;5558;42.702;23.178;2022-08-04T10:04:09;93896.19;;;28.50;41.56
11011;BME280;5558;42.702;23.178;2022-08-04T10:07:03;93891.38;;;28.69;43.75
11011;BME280;5558;42.702;23.178;2022-08-04T10:09:49;93890.97;;;28.67;41.64
11011;BME280;5558;42.702;23.178;2022-08-04T10:12:29;93887.19;;;28.79;41.19
11011;BME280;5558;42.702;23.178;2022-08-04T10:15:05;93886.56;;;28.93;40.56
11011;BME280;5558;42.702;23.178;2022-08-04T10:17:44;93887.28;;;28.86;40.56
11011;BME280;5558;42.702;23.178;2022-08-04T10:20:20;93886.69;;;28.66;40.32
11011;BME280;5558;42.702;23.178;2022-08-04T10:22:56;93881.91;;;28.56;37.44
11011;BME280;5558;42.702;23.178;2022-08-04T10:25:33;93883.28;;;28.47;36.57
11011;BME280;5558;42.702;23.178;2022-08-04T10:28:10;93880.94;;;28.45;36.55
11011;BME280;5558;42.702;23.178;2022-08-04T10:30:39;93885.81;;;28.59;37.22
11011;BME280;5558;42.702;23.178;2022-08-04T10:33:20;93878.16;;;28.71;35.80
11011;BME280;5558;42.702;23.178;2022-08-04T10:35:51;93882.56;;;28.50;34.44
11011;BME280;5558;42.702;23.178;2022-08-04T10:38:22;93874.25;;;28.69;34.45
11011;BME280;5558;42.702;23.178;2022-08-04T10:40:57;93874.47;;;28.90;34.56
11011;BME280;5558;42.702;23.178;2022-08-04T10:43:34;93873.72;;;29.30;33.88
11011;BME280;5558;42.702;23.178;2022-08-04T10:46:09;93874.41;;;29.20;34.56
11011;BME280;5558;42.702;23.178;2022-08-04T10:48:43;93880.03;;;29.01;34.71
11011;BME280;5558;42.702;23.178;2022-08-04T10:51:18;93880.31;;;28.89;33.42
11011;BME280;5558;42.702;23.178;2022-08-04T10:53:53;93867.75;;;29.14;32.32
11011;BME280;5558;42.702;23.178;2022-08-04T10:56:28;93868.25;;;29.30;33.79
11011;BME280;5558;42.702;23.178;2022-08-04T10:59:02;93866.84;;;29.46;32.07
11011;BME280;5558;42.702;23.178;2022-08-04T11:01:32;93868.59;;;29.68;32.71
11011;BME280;5558;42.702;23.178;2022-08-04T11:04:07;93856.94;;;29.71;33.47
11011;BME280;5558;42.702;23.178;2022-08-04T11:06:36;93863.56;;;29.70;34.15
11011;BME280;5558;42.702;23.178;2022-08-04T11:09:04;93858.78;;;29.60;33.40
11011;BME280;5558;42.702;23.178;2022-08-04T11:11:36;93859.06;;;29.48;33.83
11011;BME280;5558;42.702;23.178;2022-08-04T11:14:08;93855.06;;;29.35;33.53
11011;BME280;5558;42.702;23.178;2022-08-04T11:16:40;93850.81;;;29.41;34.07
11011;BME280;5558;42.702;23.178;2022-08-04T11:19:21;93853.81;;;29.69;33.62
11011;BME280;5558;42.702;23.178;2022-08-04T11:21:56;93857.38;;;29.33;33.21
11011;BME280;5558;42.702;23.178;2022-08-04T11:24:32;93848.88;;;29.42;32.46
11011;BME280;5558;42.702;23.178;2022-08-04T11:27:04;93853.28;;;29.57;31.84
11011;BME280;5558;42.702;23.178;2022-08-04T11:29:39;93842.09;;;29.69;33.05
11011;BME280;5558;42.702;23.178;2022-08-04T11:32:12;93847.75;;;30.01;32.59
11011;BME280;5558;42.702;23.178;2022-08-04T11:34:44;93843.97;;;30.19;31.10
11011;BME280;5558;42.702;23.178;2022-08-04T11:37:16;93834.16;;;30.11;31.80
11011;BME280;5558;42.702;23.178;2022-08-04T11:39:49;93835.44;;;30.28;31.15
11011;BME280;5558;42.702;23.178;2022-08-04T11:42:19;93831.75;;;29.99;32.69
11011;BME280;5558;42.702;23.178;2022-08-04T11:44:49;93831.69;;;29.81;30.71
11011;BME280;5558;42.702;23.178;2022-08-04T11:47:24;93837.75;;;29.61;31.76
11011;BME280;5558;42.702;23.178;2022-08-04T11:50:01;93835.22;;;28.98;32.91
11011;BME280;5558;42.702;23.178;2022-08-04T11:52:31;93819.97;;;29.30;33.66
11011;BME280;5558;42.702;23.178;2022-08-04T11:55:04;93826.78;;;29.57;32.47
11011;BME280;5558;42.702;23.178;2022-08-04T11:57:32;93826.25;;;29.92;32.79
11011;BME280;5558;42.702;23.178;2022-08-04T12:00:00;93826.56;;;29.73;33.24
11011;BME280;5558;42.702;23.178;2022-08-04T12:02:49;93823.75;;;29.66;32.99
11011;BME280;5558;42.702;23.178;2022-08-04T12:05:26;93814.59;;;29.95;30.45
11011;BME280;5558;42.702;23.178;2022-08-04T12:10:49;93826.63;;;29.87;33.38
11011;BME280;5558;42.702;23.178;2022-08-04T12:13:25;93821.06;;;29.69;32.55
11011;BME280;5558;42.702;23.178;2022-08-04T12:16:00;93825.47;;;29.37;32.19
11011;BME280;5558;42.702;23.178;2022-08-04T12:18:33;93831.59;;;29.24;33.21
11011;BME280;5558;42.702;23.178;2022-08-04T12:21:11;93828.75;;;29.10;33.92
11011;BME280;5558;42.702;23.178;2022-08-04T12:23:42;93821.16;;;28.93;34.22
11011;BME280;5558;42.702;23.178;2022-08-04T12:26:14;93830.50;;;28.92;34.81
11011;BME280;5558;42.702;23.178;2022-08-04T12:28:44;93826.63;;;28.56;35.43
11011;BME280;5558;42.702;23.178;2022-08-04T12:31:16;93819.38;;;28.37;35.22
11011;BME280;5558;42.702;23.178;2022-08-04T12:33:50;93817.53;;;28.48;35.45
11011;BME280;5558;42.702;23.178;2022-08-04T12:36:26;93825.38;;;28.50;35.52
11011;BME280;5558;42.702;23.178;2022-08-04T12:38:58;93817.44;;;28.38;36.17
11011;BME280;5558;42.702;23.178;2022-08-04T12:41:32;93818.19;;;28.38;35.33
11011;BME280;5558;42.702;23.178;2022-08-04T12:44:06;93818.53;;;28.33;35.28
11011;BME280;5558;42.702;23.178;2022-08-04T12:46:36;93803.66;;;28.24;35.32
11011;BME280;5558;42.702;23.178;2022-08-04T12:49:03;93819.69;;;28.32;36.29
11011;BME280;5558;42.702;23.178;2022-08-04T12:51:41;93810.22;;;28.23;34.85
11011;BME280;5558;42.702;23.178;2022-08-04T12:54:09;93802.19;;;28.33;36.63
11011;BME280;5558;42.702;23.178;2022-08-04T12:56:37;93803.03;;;28.37;35.96
11011;BME280;5558;42.702;23.178;2022-08-04T12:59:08;93807.97;;;28.28;35.47
11011;BME280;5558;42.702;23.178;2022-08-04T13:01:36;93805.16;;;28.21;35.42
11011;BME280;5558;42.702;23.178;2022-08-04T13:04:10;93813.56;;;28.09;36.35
11011;BME280;5558;42.702;23.178;2022-08-04T13:06:40;93810.44;;;28.07;35.38
11011;BME280;5558;42.702;23.178;2022-08-04T13:09:10;93808.81;;;28.03;35.57
11011;BME280;5558;42.702;23.178;2022-08-04T13:11:40;93809.19;;;28.01;35.37
11011;BME280;5558;42.702;23.178;2022-08-04T13:14:10;93796.09;;;28.10;35.46
11011;BME280;5558;42.702;23.178;2022-08-04T13:16:38;93792.56;;;28.10;35.75
11011;BME280;5558;42.702;23.178;2022-08-04T13:19:06;93804.34;;;28.17;37.14
11011;BME280;5558;42.702;23.178;2022-08-04T13:21:34;93801.63;;;28.17;35.92
11011;BME280;5558;42.702;23.178;2022-08-04T13:24:10;93798.94;;;28.21;34.30
11011;BME280;5558;42.702;23.178;2022-08-04T13:26:47;93793.16;;;28.26;35.23
11011;BME280;5558;42.702;23.178;2022-08-04T13:29:16;93790.78;;;28.54;34.79
11011;BME280;5558;42.702;23.178;2022-08-04T13:31:43;93788.09;;;28.57;35.06
11011;BME280;5558;42.702;23.178;2022-08-04T13:34:11;93792.88;;;28.67;35.56
11011;BME280;5558;42.702;23.178;2022-08-04T13:36:41;93787.38;;;28.64;33.26
11011;BME280;5558;42.702;23.178;2022-08-04T13:39:16;93781.72;;;28.80;32.76
11011;BME280;5558;42.702;23.178;2022-08-04T13:41:46;93783.28;;;28.84;34.01
11011;BME280;5558;42.702;23.178;2022-08-04T13:44:19;93781.75;;;28.83;33.42
11011;BME280;5558;42.702;23.178;2022-08-04T13:46:49;93766.94;;;28.84;32.68
11011;BME280;5558;42.702;23.178;2022-08-04T13:49:18;93775.25;;;28.98;32.42
11011;BME280;5558;42.702;23.178;2022-08-04T13:51:53;93772.28;;;29.10;33.50
11011;BME280;5558;42.702;23.178;2022-08-04T13:54:22;93771.47;;;29.10;33.03
11011;BME280;5558;42.702;23.178;2022-08-04T13:56:54;93775.84;;;29.21;33.21
11011;BME280;5558;42.702;23.178;2022-08-04T13:59:25;93770.50;;;29.32;32.95
11011;BME280;5558;42.702;23.178;2022-08-04T14:01:59;93768.88;;;29.24;32.90
11011;BME280;5558;42.702;23.178;2022-08-04T14:04:28;93766.53;;;29.22;31.68
11011;BME280;5558;42.702;23.178;2022-08-04T14:07:02;93770.41;;;29.21;31.50